KTOR/TOR METAR and TAF weather

Enter ICAO airport designator
Station Type Date Time Source
KTOR METAR 2021/03/01 21:53 UTC NOAA

KTOR 012153Z AUTO 23009KT 10SM CLR 11/M11 A3017 RMK AO2 SLP226 T01111106


Station Type Date Time Source
KTOR Decoded METAR 2021/03/01 21:53 UTC NOAA

TORRINGTON MUNICIPAL AIRPORT, WY, United States (KTOR) 42-03N 104-09W 1277M
Mar 01, 2021 - 04:53 PM EST / 2021.03.01 2153 UTC
Wind: from the SW (230 degrees) at 10 MPH (9 KT):0
Visibility: 10 mile(s):0
Sky conditions: clear
Temperature: 52.0 F (11.1 C)
Dew Point: 12.9 F (-10.6 C)
Relative Humidity: 20%
Pressure (altimeter): 30.17 in. Hg (1021 hPa)
ob: KTOR 012153Z AUTO 23009KT 10SM CLR 11/M11 A3017 RMK AO2 SLP226 T01111106
cycle: 22

Station Type Date Time Source
KTOR TAF UTC NOAA

Error!

Example: see airport list